Juergen K — PBKV — position and weather

sailwx.info

Track history (hours):
 
Tides and Currents Weather Stations Pressure Air Temp Water Temp Dewpoint Dewpoint Depression Visibility Wind Speed Wind Dir Waves Ship Positions

Juergen K

Last reported at 2015-Jul-30 16:33 UTC. Time now 2015-Aug-03 17:09 UTC.
Position N 50°26' W 002°11'.

Length 89 m; draft 5.6 m.

Type: Cargo ship. MMSI: 244329000.

Date/timePositionNaut miles runAvg speedWind from/ knotsBaromVisibWave heightAir tempDewpointWater temp
2015-Jul-30 16:33N 50°26' W 002°11'12 9.3
2015-Jul-30 15:18N 50°33' W 001°56'7 9.3
2015-Jul-30 14:33N 50°40' W 001°56'4 3.4
2015-Jul-30 13:31N 50°43' W 001°59'0 0.0
2015-Jul-30 12:31N 50°43' W 001°59'0 0.0
2015-Jul-30 11:31N 50°43' W 001°59'0 0.0
2015-Jul-30 10:28N 50°43' W 001°59'0 0.0
2015-Jul-30 09:28N 50°43' W 001°59'0 0.0
2015-Jul-30 08:31N 50°43' W 001°59'0 0.0
2015-Jul-30 07:31N 50°43' W 001°59'0 0.0
2015-Jul-30 06:28N 50°43' W 001°59'0 0.0
2015-Jul-30 05:28N 50°43' W 001°59'0 0.0
2015-Jul-30 04:31N 50°43' W 001°59'0 0.0
2015-Jul-30 03:28N 50°43' W 001°59'0 0.0
2015-Jul-30 02:31N 50°43' W 001°59'0 0.0
2015-Jul-30 01:28N 50°43' W 001°59'0 0.0
2015-Jul-30 00:31N 50°43' W 001°59'0 0.0
2015-Jul-29 23:28N 50°43' W 001°59'0 0.0
2015-Jul-29 22:31N 50°43' W 001°59'0 0.0
2015-Jul-29 21:31N 50°43' W 001°59'0 0.0
2015-Jul-29 20:31N 50°43' W 001°59'0 0.0
2015-Jul-29 19:31N 50°43' W 001°59'0 0.0
2015-Jul-29 18:31N 50°43' W 001°59'0 0.0
2015-Jul-29 17:31N 50°43' W 001°59'0 0.0
2015-Jul-29 16:31N 50°43' W 001°59'0 0.0
2015-Jul-29 15:31N 50°43' W 001°59'0 0.0
2015-Jul-29 14:31N 50°43' W 001°59'0 0.0
2015-Jul-29 13:31N 50°43' W 001°59'0 0.0
2015-Jul-29 12:31N 50°43' W 001°59'0 0.0
2015-Jul-29 11:28N 50°43' W 001°59'0 0.0
2015-Jul-29 10:31N 50°43' W 001°59'0 0.0
2015-Jul-29 09:31N 50°43' W 001°59'0 0.0
2015-Jul-29 08:28N 50°43' W 001°59'0 0.0
2015-Jul-29 07:28N 50°43' W 001°59'0 0.0
2015-Jul-29 06:28N 50°43' W 001°59'0 0.0
2015-Jul-29 05:28N 50°43' W 001°59'0 0.0
2015-Jul-29 04:28N 50°43' W 001°59'0 0.0
2015-Jul-29 03:31N 50°43' W 001°59'0 0.0
2015-Jul-29 02:28N 50°43' W 001°59'0 0.0
2015-Jul-29 01:31N 50°43' W 001°59'0 0.0
2015-Jul-29 00:31N 50°43' W 001°59'0 0.0
2015-Jul-28 23:28N 50°43' W 001°59'0 0.0
2015-Jul-28 22:31N 50°43' W 001°59'0 0.0
2015-Jul-28 21:28N 50°43' W 001°59'0 0.0
2015-Jul-28 20:25N 50°43' W 001°59'0 0.0
2015-Jul-28 19:31N 50°43' W 001°59'0 0.0
2015-Jul-28 18:31N 50°43' W 001°59'0 0.0
2015-Jul-28 17:31N 50°43' W 001°59'0 0.0
2015-Jul-28 16:31N 50°43' W 001°59'0 0.0
2015-Jul-28 15:31N 50°43' W 001°59'0 0.0
2015-Jul-28 14:31N 50°43' W 001°59'0 0.0
2015-Jul-28 13:31N 50°43' W 001°59'0 0.0
2015-Jul-28 12:31N 50°43' W 001°59'0 0.0
2015-Jul-28 11:31N 50°43' W 001°59'0 0.0
2015-Jul-28 10:31N 50°43' W 001°59'2 1.9
2015-Jul-28 09:33N 50°41' W 001°57'3 3.0
2015-Jul-28 08:33N 50°39' W 001°54'0 0.0
2015-Jul-28 07:33N 50°39' W 001°54'0 0.0
2015-Jul-28 06:33N 50°39' W 001°54'0 0.0
2015-Jul-28 05:33N 50°39' W 001°54'0 0.0
2015-Jul-28 04:33N 50°39' W 001°54'0 0.0
2015-Jul-28 03:33N 50°39' W 001°54'0 0.0
2015-Jul-28 02:33N 50°39' W 001°54'0 0.0
2015-Jul-28 01:33N 50°39' W 001°54'0 0.0
2015-Jul-28 00:33N 50°39' W 001°54'0 0.0
2015-Jul-27 23:33N 50°39' W 001°54'0 0.0
2015-Jul-27 22:33N 50°39' W 001°54'0 0.0
2015-Jul-27 21:33N 50°39' W 001°54'0 0.0
2015-Jul-27 20:33N 50°39' W 001°54'0 0.0
2015-Jul-27 19:33N 50°39' W 001°54'0 0.0
2015-Jul-27 18:33N 50°39' W 001°54'0 0.0
2015-Jul-27 17:33N 50°39' W 001°54'0 0.0
2015-Jul-27 16:33N 50°39' W 001°54'0 0.0
2015-Jul-27 15:33N 50°39' W 001°54'0 0.0
2015-Jul-27 14:33N 50°39' W 001°54'0 0.0
2015-Jul-27 13:33N 50°39' W 001°54'0 0.0
2015-Jul-27 12:33N 50°39' W 001°54'0 0.0
2015-Jul-27 11:33N 50°39' W 001°54'0 0.0
2015-Jul-27 10:33N 50°39' W 001°54'0 0.0
2015-Jul-27 09:33N 50°39' W 001°54'0 0.0
2015-Jul-27 08:33N 50°39' W 001°54'0 0.0
2015-Jul-27 07:33N 50°39' W 001°54'0 0.0
2015-Jul-27 06:33N 50°39' W 001°54'0 0.0
2015-Jul-27 05:33N 50°39' W 001°54'0 0.0
2015-Jul-27 04:33N 50°39' W 001°54'0 0.0
2015-Jul-27 03:33N 50°39' W 001°54'0 0.0
2015-Jul-27 02:33N 50°39' W 001°54'0 0.0
2015-Jul-27 01:33N 50°39' W 001°54'0 0.0
2015-Jul-27 00:33N 50°39' W 001°54'0 0.0
2015-Jul-26 23:33N 50°39' W 001°54'0 0.0
2015-Jul-26 22:33N 50°39' W 001°54'0 0.0
2015-Jul-26 21:33N 50°39' W 001°54'0 0.0
2015-Jul-26 20:33N 50°39' W 001°54'0 0.0
2015-Jul-26 19:33N 50°39' W 001°54'0 0.0
2015-Jul-26 18:33N 50°39' W 001°54'0 0.0
2015-Jul-26 17:33N 50°39' W 001°54'0 0.0
2015-Jul-26 16:33N 50°39' W 001°54'0 0.0
2015-Jul-26 15:33N 50°39' W 001°54'0 0.0
2015-Jul-26 14:33N 50°39' W 001°54'0 0.0
2015-Jul-26 13:33N 50°39' W 001°54'0 0.0
2015-Jul-26 12:33N 50°39' W 001°54'0 0.0
2015-Jul-26 11:33N 50°39' W 001°54'0 0.0
2015-Jul-26 10:33N 50°39' W 001°54'0 0.0
2015-Jul-26 09:33N 50°39' W 001°54'0 0.0
2015-Jul-26 08:33N 50°39' W 001°54'0 0.0
2015-Jul-26 07:33N 50°39' W 001°54'0 0.0
2015-Jul-26 06:33N 50°39' W 001°54'0 0.0
2015-Jul-26 05:33N 50°39' W 001°54'0 0.0
2015-Jul-26 04:33N 50°39' W 001°54'0 0.0
2015-Jul-26 03:33N 50°39' W 001°54'0 0.0
2015-Jul-26 02:33N 50°39' W 001°54'0 0.0
2015-Jul-26 01:33N 50°39' W 001°54'0 0.0
2015-Jul-26 00:33N 50°39' W 001°54'0 0.0
2015-Jul-25 23:33N 50°39' W 001°54'0 0.1
2015-Jul-25 22:33N 50°39' W 001°54'0 0.0
2015-Jul-25 21:27N 50°39' W 001°54'0 0.0
2015-Jul-25 20:33N 50°39' W 001°54'0 0.0
2015-Jul-25 19:33N 50°39' W 001°54'0 0.0
2015-Jul-25 18:33N 50°39' W 001°54'0 0.0
2015-Jul-25 17:33N 50°39' W 001°54'0 0.0
2015-Jul-25 16:33N 50°39' W 001°54'0 0.0
2015-Jul-25 15:33N 50°39' W 001°54'0 0.0
2015-Jul-25 14:30N 50°39' W 001°54'0 0.0
2015-Jul-25 13:30N 50°39' W 001°54'0 0.0
2015-Jul-25 12:33N 50°39' W 001°54'0 0.0
2015-Jul-25 11:33N 50°39' W 001°54'0 0.0
2015-Jul-25 10:33N 50°39' W 001°54'0 0.0
2015-Jul-25 09:33N 50°39' W 001°54'0 0.0
2015-Jul-25 08:33N 50°39' W 001°54'0 0.0
2015-Jul-25 07:33N 50°39' W 001°54'0 0.0
2015-Jul-25 06:33N 50°39' W 001°54'0 0.0
2015-Jul-25 05:33N 50°39' W 001°54'0 0.0
2015-Jul-25 04:33N 50°39' W 001°54'0 0.0
2015-Jul-25 03:33N 50°39' W 001°54'0 0.0
2015-Jul-25 02:33N 50°39' W 001°54'0 0.0
2015-Jul-25 01:33N 50°39' W 001°54'0 0.0
2015-Jul-25 00:33N 50°39' W 001°54'0 0.0
2015-Jul-24 23:33N 50°39' W 001°54'0 0.0
2015-Jul-24 22:33N 50°39' W 001°54'0 0.0
2015-Jul-24 21:33N 50°39' W 001°54'0 0.0
2015-Jul-24 20:33N 50°39' W 001°54'0 0.0
2015-Jul-24 19:33N 50°39' W 001°54'0 0.0
2015-Jul-24 18:33N 50°39' W 001°54'0 0.0
2015-Jul-24 17:33N 50°39' W 001°54'0 0.0
2015-Jul-24 16:33N 50°39' W 001°54'0 0.0
2015-Jul-24 15:33N 50°39' W 001°54'0 0.0
2015-Jul-24 14:33N 50°39' W 001°54'0 0.0
2015-Jul-24 13:33N 50°39' W 001°54'0 0.0
2015-Jul-24 12:33N 50°39' W 001°54'0 0.0
2015-Jul-24 11:33N 50°39' W 001°54'0 0.0
2015-Jul-24 10:33N 50°39' W 001°54'0 0.0
2015-Jul-24 09:33N 50°39' W 001°54'0 0.0
2015-Jul-24 08:33N 50°39' W 001°54'0 0.0
2015-Jul-24 07:33N 50°39' W 001°54'0 0.0
2015-Jul-24 06:34N 50°39' W 001°54'8 7.9
2015-Jul-24 05:34N 50°36' W 001°42'1612.0
2015-Jul-24 04:12N 50°31' W 001°18'1010.9
2015-Jul-24 03:18N 50°30' W 001°03'1310.1
2015-Jul-24 02:03N 50°31' W 000°43'5 9.2
2015-Jul-24 01:33N 50°31' W 000°36'33 9.9
2015-Jul-23 22:13N 50°35' E 000°16'711.3
2015-Jul-23 21:33N 50°37' E 000°27'1111.3
2015-Jul-23 20:33N 50°42' E 000°43'1111.0
2015-Jul-23 19:33N 50°49' E 000°57'1310.0
2015-Jul-23 18:15N 50°57' E 001°14'6 9.1
2015-Jul-23 17:32N 51°01' E 001°21'8 8.5
2015-Jul-23 16:34N 51°06' E 001°31'8 8.5
2015-Jul-23 15:34N 51°14' E 001°38'1010.3
2015-Jul-23 14:34N 51°24' E 001°43'1211.6
2015-Jul-23 13:33N 51°35' E 001°45'1312.6
2015-Jul-23 12:34N 51°48' E 001°44'1212.0
2015-Jul-23 11:34N 51°60' E 001°45'1211.6
2015-Jul-23 10:34N 52°11' E 001°49'1310.8
2015-Jul-23 09:24N 52°24' E 001°52'810.1
2015-Jul-23 08:33N 52°32' E 001°54'9 9.2
2015-Jul-23 07:33N 52°41' E 001°55'8 8.3
2015-Jul-23 06:34N 52°49' E 001°51'9 9.2
2015-Jul-23 05:33N 52°55' E 001°39'9 9.2
2015-Jul-23 04:33N 53°01' E 001°27'10 9.9
2015-Jul-23 03:33N 53°08' E 001°16'3310.5
2015-Jul-23 00:23N 53°27' E 000°31'910.8
2015-Jul-22 23:34N 53°31' E 000°17'1110.8
2015-Jul-22 22:34N 53°35' E 000°01'1010.5
2015-Jul-22 21:33N 53°41' W 000°14'5 4.9
2015-Jul-22 20:32N 53°43' W 000°22'0 0.0
2015-Jul-22 19:32N 53°43' W 000°22'0 0.0
2015-Jul-22 18:32N 53°43' W 000°22'0 0.0
2015-Jul-22 17:32N 53°43' W 000°22'0 0.0
2015-Jul-22 16:32N 53°43' W 000°22'0 0.0
2015-Jul-22 15:32N 53°43' W 000°22'0 0.0
2015-Jul-22 14:32N 53°43' W 000°22'0 0.0
2015-Jul-22 13:32N 53°43' W 000°22'0 0.0
2015-Jul-22 12:32N 53°43' W 000°22'0 0.0
2015-Jul-22 11:32N 53°43' W 000°22'0 0.0
2015-Jul-22 10:29N 53°43' W 000°22'0 0.0
2015-Jul-22 09:32N 53°43' W 000°22'0 0.0
2015-Jul-22 08:32N 53°43' W 000°22'0 0.0
2015-Jul-22 07:32N 53°43' W 000°22'0 0.0
2015-Jul-22 06:32N 53°43' W 000°22'0 0.0
2015-Jul-22 05:32N 53°43' W 000°22'0 0.0
2015-Jul-22 04:32N 53°43' W 000°22'0 0.0
2015-Jul-22 03:32N 53°43' W 000°22'0 0.0
2015-Jul-22 02:32N 53°43' W 000°22'0 0.0
2015-Jul-22 01:32N 53°43' W 000°22'0 0.0
2015-Jul-22 00:32N 53°43' W 000°22'0 0.0
2015-Jul-21 23:32N 53°43' W 000°22'0 0.0
2015-Jul-21 22:32N 53°43' W 000°22'0 0.0
2015-Jul-21 21:32N 53°43' W 000°22'4 3.9
2015-Jul-21 20:33N 53°43' W 000°16'1111.2
2015-Jul-21 19:33N 53°36' W 000°02'1010.3
2015-Jul-21 18:33N 53°33' E 000°15'7 6.8
2015-Jul-21 17:33N 53°35' E 000°26'1 0.5
2015-Jul-21 15:13N 53°36' E 000°27'0 0.0
2015-Jul-21 14:28N 53°36' E 000°27'0 0.0
2015-Jul-21 12:23N 53°36' E 000°27'0 0.0
2015-Jul-21 11:33N 53°36' E 000°27'42 8.3
2015-Jul-21 06:24N 53°09' E 001°22'910.3
2015-Jul-21 05:33N 53°03' E 001°33'1110.8
2015-Jul-21 04:33N 52°58' E 001°48'1010.5
2015-Jul-21 03:33N 52°52' E 002°03'67 8.3
2015-Jul-20 19:28N 52°34' E 003°49'8 8.6
2015-Jul-20 18:33N 52°31' E 004°02'9 8.8
2015-Jul-20 17:33N 52°31' E 004°16'9 8.9
2015-Jul-20 16:33N 52°29' E 004°30'  
Track history (hours):
 
Tides and Currents Weather Stations Pressure Air Temp Water Temp Dewpoint Dewpoint Depression Visibility Wind Speed Wind Dir Waves Ship Positions

Juergen K

Last reported at 2015-Jul-30 16:33 UTC. Time now 2015-Aug-03 17:09 UTC.
Position N 50°26' W 002°11'.

Length 89 m; draft 5.6 m.

Type: Cargo ship. MMSI: 244329000.

Date/timePositionNaut miles runAvg speedWind from/ knotsBaromVisibWave heightAir tempDewpointWater temp
2015-Jul-30 16:33N 50°26' W 002°11'12 9.3
2015-Jul-30 15:18N 50°33' W 001°56'7 9.3
2015-Jul-30 14:33N 50°40' W 001°56'4 3.4
2015-Jul-30 13:31N 50°43' W 001°59'0 0.0
2015-Jul-30 12:31N 50°43' W 001°59'0 0.0
2015-Jul-30 11:31N 50°43' W 001°59'0 0.0
2015-Jul-30 10:28N 50°43' W 001°59'0 0.0
2015-Jul-30 09:28N 50°43' W 001°59'0 0.0
2015-Jul-30 08:31N 50°43' W 001°59'0 0.0
2015-Jul-30 07:31N 50°43' W 001°59'0 0.0
2015-Jul-30 06:28N 50°43' W 001°59'0 0.0
2015-Jul-30 05:28N 50°43' W 001°59'0 0.0
2015-Jul-30 04:31N 50°43' W 001°59'0 0.0
2015-Jul-30 03:28N 50°43' W 001°59'0 0.0
2015-Jul-30 02:31N 50°43' W 001°59'0 0.0
2015-Jul-30 01:28N 50°43' W 001°59'0 0.0
2015-Jul-30 00:31N 50°43' W 001°59'0 0.0
2015-Jul-29 23:28N 50°43' W 001°59'0 0.0
2015-Jul-29 22:31N 50°43' W 001°59'0 0.0
2015-Jul-29 21:31N 50°43' W 001°59'0 0.0
2015-Jul-29 20:31N 50°43' W 001°59'0 0.0
2015-Jul-29 19:31N 50°43' W 001°59'0 0.0
2015-Jul-29 18:31N 50°43' W 001°59'0 0.0
2015-Jul-29 17:31N 50°43' W 001°59'0 0.0
2015-Jul-29 16:31N 50°43' W 001°59'0 0.0
2015-Jul-29 15:31N 50°43' W 001°59'0 0.0
2015-Jul-29 14:31N 50°43' W 001°59'0 0.0
2015-Jul-29 13:31N 50°43' W 001°59'0 0.0
2015-Jul-29 12:31N 50°43' W 001°59'0 0.0
2015-Jul-29 11:28N 50°43' W 001°59'0 0.0
2015-Jul-29 10:31N 50°43' W 001°59'0 0.0
2015-Jul-29 09:31N 50°43' W 001°59'0 0.0
2015-Jul-29 08:28N 50°43' W 001°59'0 0.0
2015-Jul-29 07:28N 50°43' W 001°59'0 0.0
2015-Jul-29 06:28N 50°43' W 001°59'0 0.0
2015-Jul-29 05:28N 50°43' W 001°59'0 0.0
2015-Jul-29 04:28N 50°43' W 001°59'0 0.0
2015-Jul-29 03:31N 50°43' W 001°59'0 0.0
2015-Jul-29 02:28N 50°43' W 001°59'0 0.0
2015-Jul-29 01:31N 50°43' W 001°59'0 0.0
2015-Jul-29 00:31N 50°43' W 001°59'0 0.0
2015-Jul-28 23:28N 50°43' W 001°59'0 0.0
2015-Jul-28 22:31N 50°43' W 001°59'0 0.0
2015-Jul-28 21:28N 50°43' W 001°59'0 0.0
2015-Jul-28 20:25N 50°43' W 001°59'0 0.0
2015-Jul-28 19:31N 50°43' W 001°59'0 0.0
2015-Jul-28 18:31N 50°43' W 001°59'0 0.0
2015-Jul-28 17:31N 50°43' W 001°59'0 0.0
2015-Jul-28 16:31N 50°43' W 001°59'0 0.0
2015-Jul-28 15:31N 50°43' W 001°59'0 0.0
2015-Jul-28 14:31N 50°43' W 001°59'0 0.0
2015-Jul-28 13:31N 50°43' W 001°59'0 0.0
2015-Jul-28 12:31N 50°43' W 001°59'0 0.0
2015-Jul-28 11:31N 50°43' W 001°59'0 0.0
2015-Jul-28 10:31N 50°43' W 001°59'2 1.9
2015-Jul-28 09:33N 50°41' W 001°57'3 3.0
2015-Jul-28 08:33N 50°39' W 001°54'0 0.0
2015-Jul-28 07:33N 50°39' W 001°54'0 0.0
2015-Jul-28 06:33N 50°39' W 001°54'0 0.0
2015-Jul-28 05:33N 50°39' W 001°54'0 0.0
2015-Jul-28 04:33N 50°39' W 001°54'0 0.0
2015-Jul-28 03:33N 50°39' W 001°54'0 0.0
2015-Jul-28 02:33N 50°39' W 001°54'0 0.0
2015-Jul-28 01:33N 50°39' W 001°54'0 0.0
2015-Jul-28 00:33N 50°39' W 001°54'0 0.0
2015-Jul-27 23:33N 50°39' W 001°54'0 0.0
2015-Jul-27 22:33N 50°39' W 001°54'0 0.0
2015-Jul-27 21:33N 50°39' W 001°54'0 0.0
2015-Jul-27 20:33N 50°39' W 001°54'0 0.0
2015-Jul-27 19:33N 50°39' W 001°54'0 0.0
2015-Jul-27 18:33N 50°39' W 001°54'0 0.0
2015-Jul-27 17:33N 50°39' W 001°54'0 0.0
2015-Jul-27 16:33N 50°39' W 001°54'0 0.0
2015-Jul-27 15:33N 50°39' W 001°54'0 0.0
2015-Jul-27 14:33N 50°39' W 001°54'0 0.0
2015-Jul-27 13:33N 50°39' W 001°54'0 0.0
2015-Jul-27 12:33N 50°39' W 001°54'0 0.0
2015-Jul-27 11:33N 50°39' W 001°54'0 0.0
2015-Jul-27 10:33N 50°39' W 001°54'0 0.0
2015-Jul-27 09:33N 50°39' W 001°54'0 0.0
2015-Jul-27 08:33N 50°39' W 001°54'0 0.0
2015-Jul-27 07:33N 50°39' W 001°54'0 0.0
2015-Jul-27 06:33N 50°39' W 001°54'0 0.0
2015-Jul-27 05:33N 50°39' W 001°54'0 0.0
2015-Jul-27 04:33N 50°39' W 001°54'0 0.0
2015-Jul-27 03:33N 50°39' W 001°54'0 0.0
2015-Jul-27 02:33N 50°39' W 001°54'0 0.0
2015-Jul-27 01:33N 50°39' W 001°54'0 0.0
2015-Jul-27 00:33N 50°39' W 001°54'0 0.0
2015-Jul-26 23:33N 50°39' W 001°54'0 0.0
2015-Jul-26 22:33N 50°39' W 001°54'0 0.0
2015-Jul-26 21:33N 50°39' W 001°54'0 0.0
2015-Jul-26 20:33N 50°39' W 001°54'0 0.0
2015-Jul-26 19:33N 50°39' W 001°54'0 0.0
2015-Jul-26 18:33N 50°39' W 001°54'0 0.0
2015-Jul-26 17:33N 50°39' W 001°54'0 0.0
2015-Jul-26 16:33N 50°39' W 001°54'0 0.0
2015-Jul-26 15:33N 50°39' W 001°54'0 0.0
2015-Jul-26 14:33N 50°39' W 001°54'0 0.0
2015-Jul-26 13:33N 50°39' W 001°54'0 0.0
2015-Jul-26 12:33N 50°39' W 001°54'0 0.0
2015-Jul-26 11:33N 50°39' W 001°54'0 0.0
2015-Jul-26 10:33N 50°39' W 001°54'0 0.0
2015-Jul-26 09:33N 50°39' W 001°54'0 0.0
2015-Jul-26 08:33N 50°39' W 001°54'0 0.0
2015-Jul-26 07:33N 50°39' W 001°54'0 0.0
2015-Jul-26 06:33N 50°39' W 001°54'0 0.0
2015-Jul-26 05:33N 50°39' W 001°54'0 0.0
2015-Jul-26 04:33N 50°39' W 001°54'0 0.0
2015-Jul-26 03:33N 50°39' W 001°54'0 0.0
2015-Jul-26 02:33N 50°39' W 001°54'0 0.0
2015-Jul-26 01:33N 50°39' W 001°54'0 0.0
2015-Jul-26 00:33N 50°39' W 001°54'0 0.0
2015-Jul-25 23:33N 50°39' W 001°54'0 0.1
2015-Jul-25 22:33N 50°39' W 001°54'0 0.0
2015-Jul-25 21:27N 50°39' W 001°54'0 0.0
2015-Jul-25 20:33N 50°39' W 001°54'0 0.0
2015-Jul-25 19:33N 50°39' W 001°54'0 0.0
2015-Jul-25 18:33N 50°39' W 001°54'0 0.0
2015-Jul-25 17:33N 50°39' W 001°54'0 0.0
2015-Jul-25 16:33N 50°39' W 001°54'0 0.0
2015-Jul-25 15:33N 50°39' W 001°54'0 0.0
2015-Jul-25 14:30N 50°39' W 001°54'0 0.0
2015-Jul-25 13:30N 50°39' W 001°54'0 0.0
2015-Jul-25 12:33N 50°39' W 001°54'0 0.0
2015-Jul-25 11:33N 50°39' W 001°54'0 0.0
2015-Jul-25 10:33N 50°39' W 001°54'0 0.0
2015-Jul-25 09:33N 50°39' W 001°54'0 0.0
2015-Jul-25 08:33N 50°39' W 001°54'0 0.0
2015-Jul-25 07:33N 50°39' W 001°54'0 0.0
2015-Jul-25 06:33N 50°39' W 001°54'0 0.0
2015-Jul-25 05:33N 50°39' W 001°54'0 0.0
2015-Jul-25 04:33N 50°39' W 001°54'0 0.0
2015-Jul-25 03:33N 50°39' W 001°54'0 0.0
2015-Jul-25 02:33N 50°39' W 001°54'0 0.0
2015-Jul-25 01:33N 50°39' W 001°54'0 0.0
2015-Jul-25 00:33N 50°39' W 001°54'0 0.0
2015-Jul-24 23:33N 50°39' W 001°54'0 0.0
2015-Jul-24 22:33N 50°39' W 001°54'0 0.0
2015-Jul-24 21:33N 50°39' W 001°54'0 0.0
2015-Jul-24 20:33N 50°39' W 001°54'0 0.0
2015-Jul-24 19:33N 50°39' W 001°54'0 0.0
2015-Jul-24 18:33N 50°39' W 001°54'0 0.0
2015-Jul-24 17:33N 50°39' W 001°54'0 0.0
2015-Jul-24 16:33N 50°39' W 001°54'0 0.0
2015-Jul-24 15:33N 50°39' W 001°54'0 0.0
2015-Jul-24 14:33N 50°39' W 001°54'0 0.0
2015-Jul-24 13:33N 50°39' W 001°54'0 0.0
2015-Jul-24 12:33N 50°39' W 001°54'0 0.0
2015-Jul-24 11:33N 50°39' W 001°54'0 0.0
2015-Jul-24 10:33N 50°39' W 001°54'0 0.0
2015-Jul-24 09:33N 50°39' W 001°54'0 0.0
2015-Jul-24 08:33N 50°39' W 001°54'0 0.0
2015-Jul-24 07:33N 50°39' W 001°54'0 0.0
2015-Jul-24 06:34N 50°39' W 001°54'8 7.9
2015-Jul-24 05:34N 50°36' W 001°42'1612.0
2015-Jul-24 04:12N 50°31' W 001°18'1010.9
2015-Jul-24 03:18N 50°30' W 001°03'1310.1
2015-Jul-24 02:03N 50°31' W 000°43'5 9.2
2015-Jul-24 01:33N 50°31' W 000°36'33 9.9
2015-Jul-23 22:13N 50°35' E 000°16'711.3
2015-Jul-23 21:33N 50°37' E 000°27'1111.3
2015-Jul-23 20:33N 50°42' E 000°43'1111.0
2015-Jul-23 19:33N 50°49' E 000°57'1310.0
2015-Jul-23 18:15N 50°57' E 001°14'6 9.1
2015-Jul-23 17:32N 51°01' E 001°21'8 8.5
2015-Jul-23 16:34N 51°06' E 001°31'8 8.5
2015-Jul-23 15:34N 51°14' E 001°38'1010.3
2015-Jul-23 14:34N 51°24' E 001°43'1211.6
2015-Jul-23 13:33N 51°35' E 001°45'1312.6
2015-Jul-23 12:34N 51°48' E 001°44'1212.0
2015-Jul-23 11:34N 51°60' E 001°45'1211.6
2015-Jul-23 10:34N 52°11' E 001°49'1310.8
2015-Jul-23 09:24N 52°24' E 001°52'810.1
2015-Jul-23 08:33N 52°32' E 001°54'9 9.2
2015-Jul-23 07:33N 52°41' E 001°55'8 8.3
2015-Jul-23 06:34N 52°49' E 001°51'9 9.2
2015-Jul-23 05:33N 52°55' E 001°39'9 9.2
2015-Jul-23 04:33N 53°01' E 001°27'10 9.9
2015-Jul-23 03:33N 53°08' E 001°16'3310.5
2015-Jul-23 00:23N 53°27' E 000°31'910.8
2015-Jul-22 23:34N 53°31' E 000°17'1110.8
2015-Jul-22 22:34N 53°35' E 000°01'1010.5
2015-Jul-22 21:33N 53°41' W 000°14'5 4.9
2015-Jul-22 20:32N 53°43' W 000°22'0 0.0
2015-Jul-22 19:32N 53°43' W 000°22'0 0.0
2015-Jul-22 18:32N 53°43' W 000°22'0 0.0
2015-Jul-22 17:32N 53°43' W 000°22'0 0.0
2015-Jul-22 16:32N 53°43' W 000°22'0 0.0
2015-Jul-22 15:32N 53°43' W 000°22'0 0.0
2015-Jul-22 14:32N 53°43' W 000°22'0 0.0
2015-Jul-22 13:32N 53°43' W 000°22'0 0.0
2015-Jul-22 12:32N 53°43' W 000°22'0 0.0
2015-Jul-22 11:32N 53°43' W 000°22'0 0.0
2015-Jul-22 10:29N 53°43' W 000°22'0 0.0
2015-Jul-22 09:32N 53°43' W 000°22'0 0.0
2015-Jul-22 08:32N 53°43' W 000°22'0 0.0
2015-Jul-22 07:32N 53°43' W 000°22'0 0.0
2015-Jul-22 06:32N 53°43' W 000°22'0 0.0
2015-Jul-22 05:32N 53°43' W 000°22'0 0.0
2015-Jul-22 04:32N 53°43' W 000°22'0 0.0
2015-Jul-22 03:32N 53°43' W 000°22'0 0.0
2015-Jul-22 02:32N 53°43' W 000°22'0 0.0
2015-Jul-22 01:32N 53°43' W 000°22'0 0.0
2015-Jul-22 00:32N 53°43' W 000°22'0 0.0
2015-Jul-21 23:32N 53°43' W 000°22'0 0.0
2015-Jul-21 22:32N 53°43' W 000°22'0 0.0
2015-Jul-21 21:32N 53°43' W 000°22'4 3.9
2015-Jul-21 20:33N 53°43' W 000°16'1111.2
2015-Jul-21 19:33N 53°36' W 000°02'1010.3
2015-Jul-21 18:33N 53°33' E 000°15'7 6.8
2015-Jul-21 17:33N 53°35' E 000°26'1 0.5
2015-Jul-21 15:13N 53°36' E 000°27'0 0.0
2015-Jul-21 14:28N 53°36' E 000°27'0 0.0
2015-Jul-21 12:23N 53°36' E 000°27'0 0.0
2015-Jul-21 11:33N 53°36' E 000°27'42 8.3
2015-Jul-21 06:24N 53°09' E 001°22'910.3
2015-Jul-21 05:33N 53°03' E 001°33'1110.8
2015-Jul-21 04:33N 52°58' E 001°48'1010.5
2015-Jul-21 03:33N 52°52' E 002°03'67 8.3
2015-Jul-20 19:28N 52°34' E 003°49'8 8.6
2015-Jul-20 18:33N 52°31' E 004°02'9 8.8
2015-Jul-20 17:33N 52°31' E 004°16'9 8.9
2015-Jul-20 16:33N 52°29' E 004°30'  

Dump ship's entire track history